LZTT/TAT METAR and TAF weather

Enter ICAO airport designator
Station Type Date Time Source
LZTT METAR 2019/10/15 21:32 UTC NOAA

LZTT 152132Z 20004KT 170V230 CAVOK 13/08 Q1015


Station Type Date Time Source
LZTT Decoded METAR 2019/10/15 21:32 UTC NOAA

Poprad / Tatry, Slovakia (LZTT) 49-04N 020-15E 695M
Oct 15, 2019 - 05:32 PM EDT / 2019.10.15 2132 UTC
Wind: from the SSW (200 degrees) at 5 MPH (4 KT) (direction variable):0
Visibility: greater than 7 mile(s):0
Temperature: 55 F (13 C)
Dew Point: 46 F (8 C)
Relative Humidity: 71%
Pressure (altimeter): 29.97 in. Hg (1015 hPa)
ob: LZTT 152132Z 20004KT 170V230 CAVOK 13/08 Q1015
cycle: 21

Station Type Date Time Source
LZTT TAF 2019/10/15 18:46 UTC NOAA

TAF LZTT 151700Z 1518/1618 24004KT CAVOK
BECMG 1608/1610 26010KT 9999 FEW040 BKN100
TEMPO 1615/1618 25015G25KT -SHRA BKN040

Example: see airport list